createdAt,value
2023-01-03T00:02:42.550Z,37.70
2023-01-03T00:05:45.721Z,40.75
2023-01-03T00:08:48.153Z,40.30
2023-01-03T00:12:10.175Z,36.47
2023-01-03T00:15:15.710Z,36.25
2023-01-03T00:18:18.038Z,36.95
2023-01-03T00:21:20.207Z,34.95
2023-01-03T00:24:22.872Z,37.55
2023-01-03T00:27:25.091Z,34.93
2023-01-03T00:30:27.697Z,34.47
2023-01-03T00:33:30.003Z,35.38
2023-01-03T00:36:33.749Z,34.95
2023-01-03T00:39:35.996Z,35.22
2023-01-03T00:42:58.163Z,37.13
2023-01-03T00:46:00.636Z,36.55
2023-01-03T00:49:03.421Z,37.47
2023-01-03T00:52:05.746Z,37.78
2023-01-03T00:55:08.219Z,38.00
2023-01-03T00:58:10.422Z,39.30
2023-01-03T01:01:14.650Z,36.83
2023-01-03T01:04:19.049Z,39.03
2023-01-03T01:07:21.348Z,37.38
2023-01-03T01:10:24.579Z,38.38
2023-01-03T01:13:26.850Z,40.23
2023-01-03T01:16:30.634Z,44.00
2023-01-03T01:19:38.913Z,45.35
2023-01-03T01:22:41.252Z,40.83
2023-01-03T01:25:44.354Z,42.45
2023-01-03T01:28:46.497Z,44.53
2023-01-03T01:31:49.193Z,40.70
2023-01-03T01:34:51.491Z,47.78
2023-01-03T01:37:53.681Z,45.20
2023-01-03T01:40:55.890Z,45.35
2023-01-03T01:44:16.650Z,47.97
2023-01-03T01:47:25.003Z,43.10
2023-01-03T01:50:45.983Z,41.03
2023-01-03T01:53:48.347Z,43.60
2023-01-03T01:56:53.164Z,41.42
2023-01-03T01:59:55.312Z,41.33
2023-01-03T02:02:57.761Z,40.35
2023-01-03T02:06:00.758Z,41.22
2023-01-03T02:09:03.157Z,39.67
2023-01-03T02:12:44.472Z,40.65
2023-01-03T02:16:25.273Z,39.47
2023-01-03T02:19:38.444Z,37.40
2023-01-03T02:22:52.486Z,38.00
2023-01-03T02:26:09.792Z,38.17
2023-01-03T02:29:19.608Z,36.22
2023-01-03T02:32:21.838Z,37.47
2023-01-03T02:35:27.569Z,36.00
2023-01-03T02:38:43.410Z,36.90
2023-01-03T02:41:46.809Z,34.15
2023-01-03T02:44:58.515Z,35.70
2023-01-03T02:48:20.939Z,35.90
2023-01-03T02:51:32.622Z,34.83
2023-01-03T02:54:37.689Z,36.67
2023-01-03T02:57:44.202Z,36.22
2023-01-03T03:00:48.935Z,34.05
2023-01-03T03:03:51.282Z,34.83
2023-01-03T03:07:23.230Z,34.38
2023-01-03T03:10:44.711Z,36.70
2023-01-03T03:13:50.404Z,33.33
2023-01-03T03:16:54.117Z,37.20
2023-01-03T03:20:16.025Z,35.60
2023-01-03T03:23:38.411Z,38.72
2023-01-03T03:26:42.132Z,35.88
2023-01-03T03:29:44.338Z,30.70
2023-01-03T03:32:48.538Z,29.55
2023-01-03T03:35:54.888Z,26.63
2023-01-03T03:38:57.331Z,25.50
2023-01-03T03:42:38.488Z,24.17
2023-01-03T03:45:52.309Z,22.70
2023-01-03T03:49:18.586Z,21.48
2023-01-03T03:52:24.145Z,21.43
2023-01-03T03:55:30.564Z,22.73
2023-01-03T03:58:49.035Z,22.85
2023-01-03T04:01:51.390Z,21.90
2023-01-03T04:04:55.942Z,21.50
2023-01-03T04:07:58.159Z,22.43
2023-01-03T04:11:06.210Z,19.13
2023-01-03T04:14:08.471Z,18.85
2023-01-03T04:17:10.889Z,19.60
2023-01-03T04:20:13.966Z,18.88
2023-01-03T04:23:16.135Z,18.67
2023-01-03T04:26:18.988Z,18.65
2023-01-03T04:29:21.231Z,21.35
2023-01-03T04:32:23.482Z,29.08
2023-01-03T04:35:25.875Z,39.60
2023-01-03T04:38:28.083Z,47.63
2023-01-03T04:41:30.283Z,52.10
2023-01-03T04:44:32.485Z,56.92
2023-01-03T04:47:34.702Z,48.88
2023-01-03T04:50:37.094Z,52.13
2023-01-03T04:53:39.305Z,49.70
2023-01-03T04:56:41.547Z,48.22
2023-01-03T04:59:43.747Z,44.63
2023-01-03T05:02:45.920Z,42.55
2023-01-03T05:05:48.079Z,41.10
2023-01-03T05:08:50.920Z,37.90
2023-01-03T05:11:53.426Z,32.85
2023-01-03T05:14:55.829Z,27.98
2023-01-03T05:17:58.217Z,23.67
2023-01-03T05:21:32.303Z,21.13
2023-01-03T05:24:52.974Z,19.53
2023-01-03T05:27:56.001Z,19.23
2023-01-03T05:30:58.955Z,19.35
2023-01-03T05:34:01.774Z,17.35
2023-01-03T05:37:05.125Z,15.80
2023-01-03T05:40:07.639Z,16.03
2023-01-03T05:43:09.961Z,16.73
2023-01-03T05:46:12.343Z,16.77
2023-01-03T05:49:15.977Z,16.85
2023-01-03T05:52:18.520Z,19.30
2023-01-03T05:55:20.763Z,19.90
2023-01-03T05:58:22.992Z,20.38
2023-01-03T06:01:28.792Z,21.20
2023-01-03T06:04:31.285Z,23.00
2023-01-03T06:07:34.183Z,18.73
2023-01-03T06:10:39.237Z,18.67
2023-01-03T06:13:41.906Z,19.75
2023-01-03T06:17:02.671Z,18.77
2023-01-03T06:20:05.391Z,18.58
2023-01-03T06:23:07.574Z,17.17
2023-01-03T06:26:09.870Z,17.70
2023-01-03T06:29:12.080Z,17.38
2023-01-03T06:32:14.345Z,19.27
2023-01-03T06:35:16.622Z,19.15
2023-01-03T06:38:19.118Z,23.15
2023-01-03T06:41:21.837Z,19.27
2023-01-03T06:44:24.006Z,18.70
2023-01-03T06:47:44.869Z,17.88
2023-01-03T06:51:05.830Z,16.80
2023-01-03T06:54:08.893Z,15.82
2023-01-03T06:57:11.070Z,17.93
2023-01-03T07:00:29.433Z,19.60
2023-01-03T07:03:32.302Z,21.38
2023-01-03T07:06:34.573Z,21.58
2023-01-03T07:09:36.770Z,20.45
2023-01-03T07:13:17.679Z,17.63
2023-01-03T07:16:20.518Z,20.00
2023-01-03T07:19:22.810Z,18.70
2023-01-03T07:22:25.049Z,20.33
2023-01-03T07:25:27.227Z,20.65
2023-01-03T07:28:29.622Z,20.50
2023-01-03T07:31:33.284Z,19.40
2023-01-03T07:34:36.275Z,20.30
2023-01-03T07:37:38.639Z,19.48
2023-01-03T07:40:41.041Z,17.52
2023-01-03T07:43:47.243Z,16.60
2023-01-03T07:46:49.511Z,16.27
2023-01-03T07:49:51.767Z,15.02
2023-01-03T07:52:53.955Z,14.88
2023-01-03T07:56:05.266Z,15.77
2023-01-03T07:59:10.134Z,14.00
2023-01-03T08:02:12.554Z,14.23
2023-01-03T08:05:17.775Z,14.52
2023-01-03T08:08:20.076Z,13.68
2023-01-03T08:11:41.065Z,14.70
2023-01-03T08:14:43.669Z,15.27
2023-01-03T08:17:45.892Z,16.35
2023-01-03T08:20:48.213Z,16.95
2023-01-03T08:23:50.629Z,17.05
2023-01-03T08:26:52.805Z,17.17
2023-01-03T08:29:55.093Z,18.30
2023-01-03T08:32:59.523Z,19.23
2023-01-03T08:36:03.587Z,19.13
2023-01-03T08:39:08.151Z,18.60
2023-01-03T08:42:13.685Z,19.15
2023-01-03T08:45:17.372Z,20.27
2023-01-03T08:48:21.302Z,20.00
2023-01-03T08:51:30.790Z,18.25
2023-01-03T08:54:33.160Z,19.10
2023-01-03T08:57:35.764Z,18.57
2023-01-03T09:00:38.000Z,16.98
2023-01-03T09:03:40.733Z,18.98
2023-01-03T09:06:43.326Z,18.30
2023-01-03T09:09:45.611Z,18.15
2023-01-03T09:12:48.016Z,17.63
2023-01-03T09:15:50.500Z,14.70
2023-01-03T09:18:52.933Z,14.10
2023-01-03T09:21:55.337Z,14.00
2023-01-03T09:24:57.707Z,15.30
2023-01-03T09:28:00.050Z,14.10
2023-01-03T09:31:02.566Z,13.40
2023-01-03T09:34:05.465Z,13.57
2023-01-03T09:37:07.800Z,12.98
2023-01-03T09:40:10.441Z,15.00
2023-01-03T09:43:23.129Z,14.00
2023-01-03T09:46:28.278Z,13.60
2023-01-03T09:49:31.101Z,13.32
2023-01-03T09:52:52.630Z,14.07
2023-01-03T09:56:25.883Z,13.48
2023-01-03T09:59:49.931Z,12.23
2023-01-03T10:03:23.449Z,12.25
2023-01-03T10:06:25.866Z,12.13
2023-01-03T10:09:47.124Z,11.95
2023-01-03T10:12:56.672Z,11.98
2023-01-03T10:16:02.610Z,11.50
2023-01-03T10:19:17.304Z,12.13
2023-01-03T10:22:25.707Z,11.70
2023-01-03T10:25:28.884Z,10.60
2023-01-03T10:28:37.834Z,10.27
2023-01-03T10:31:40.254Z,10.90
2023-01-03T10:34:42.682Z,10.55
2023-01-03T10:37:45.554Z,11.15
2023-01-03T10:40:50.541Z,10.35
2023-01-03T10:43:57.367Z,10.73
2023-01-03T10:47:07.991Z,10.50
2023-01-03T10:50:20.608Z,9.40
2023-01-03T10:53:23.505Z,10.73
2023-01-03T10:56:26.873Z,11.35
2023-01-03T10:59:30.678Z,10.07
2023-01-03T11:02:42.553Z,8.83
2023-01-03T11:05:46.813Z,9.50
2023-01-03T11:08:49.556Z,10.52
2023-01-03T11:11:59.980Z,10.05
2023-01-03T11:15:05.215Z,10.02
2023-01-03T11:18:17.336Z,9.33
2023-01-03T11:21:25.686Z,8.85
2023-01-03T11:24:50.393Z,8.98
2023-01-03T11:27:58.357Z,8.50
2023-01-03T11:31:35.367Z,9.07
2023-01-03T11:35:20.633Z,9.57
2023-01-03T11:38:07.568Z,9.13
2023-01-03T11:41:09.841Z,9.48
2023-01-03T11:44:27.196Z,9.25
2023-01-03T11:47:48.381Z,8.75
2023-01-03T11:50:54.234Z,9.73
2023-01-03T11:54:03.300Z,10.13
2023-01-03T11:57:12.090Z,9.43
2023-01-03T12:00:34.803Z,9.35
2023-01-03T12:03:37.258Z,9.52
2023-01-03T12:06:56.641Z,9.67
2023-01-03T12:10:17.556Z,9.70
2023-01-03T12:13:29.114Z,9.43
2023-01-03T12:16:39.438Z,9.25
2023-01-03T12:20:09.898Z,9.00
2023-01-03T12:23:30.790Z,9.73
2023-01-03T12:26:34.419Z,9.15
2023-01-03T12:29:56.455Z,9.65
2023-01-03T12:33:06.427Z,9.65
2023-01-03T12:36:27.638Z,9.60
2023-01-03T12:39:47.174Z,9.40
2023-01-03T12:42:54.170Z,9.30
2023-01-03T12:46:00.529Z,9.15
2023-01-03T12:49:21.787Z,10.23
2023-01-03T12:52:25.706Z,9.73
2023-01-03T12:55:48.311Z,8.97
2023-01-03T12:59:09.941Z,10.02
2023-01-03T13:02:24.848Z,10.27
2023-01-03T13:05:50.652Z,9.10
2023-01-03T13:08:55.537Z,9.85
2023-01-03T13:12:08.851Z,9.63
2023-01-03T13:15:33.314Z,9.68
2023-01-03T13:18:38.364Z,9.25
2023-01-03T13:21:53.138Z,9.23
2023-01-03T13:24:55.666Z,9.35
2023-01-03T13:28:09.289Z,12.10
2023-01-03T13:31:14.689Z,11.18
2023-01-03T13:34:18.740Z,9.57
2023-01-03T13:37:39.932Z,9.75
2023-01-03T13:41:16.745Z,9.82
2023-01-03T13:44:09.237Z,9.50
2023-01-03T13:47:25.897Z,9.73
2023-01-03T13:50:35.371Z,9.77
2023-01-03T13:53:39.169Z,9.52
2023-01-03T13:56:44.437Z,9.60
2023-01-03T13:59:47.579Z,9.57
2023-01-03T14:03:08.212Z,9.63
2023-01-03T14:06:15.682Z,9.63
2023-01-03T14:09:24.081Z,9.77
2023-01-03T14:12:26.381Z,10.52
2023-01-03T14:15:30.516Z,9.97
2023-01-03T14:18:33.587Z,9.68
2023-01-03T14:21:45.271Z,10.48
2023-01-03T14:24:57.775Z,10.82
2023-01-03T14:28:01.554Z,10.48
2023-01-03T14:31:09.051Z,10.77
2023-01-03T14:34:18.993Z,11.15
2023-01-03T14:37:22.478Z,11.20
2023-01-03T14:40:24.821Z,11.23
2023-01-03T14:43:32.185Z,10.35
2023-01-03T14:46:35.506Z,11.13
2023-01-03T14:49:44.033Z,10.20
2023-01-03T14:52:47.154Z,11.52
2023-01-03T14:55:51.793Z,11.30
2023-01-03T14:58:54.573Z,12.18
2023-01-03T15:01:57.165Z,10.67
2023-01-03T15:05:01.780Z,12.30
2023-01-03T15:08:25.354Z,12.38
2023-01-03T15:11:56.493Z,11.68
2023-01-03T15:15:06.528Z,12.30
2023-01-03T15:18:14.592Z,11.57
2023-01-03T15:21:21.890Z,11.05
2023-01-03T15:24:24.263Z,11.48
2023-01-03T15:27:38.940Z,10.35
2023-01-03T15:30:46.457Z,10.77
2023-01-03T15:33:59.182Z,11.23
2023-01-03T15:37:13.864Z,11.27
2023-01-03T15:40:16.585Z,11.43
2023-01-03T15:43:23.749Z,11.73
2023-01-03T15:46:27.998Z,11.80
2023-01-03T15:49:31.505Z,12.23
2023-01-03T15:52:33.791Z,11.93
2023-01-03T15:55:36.139Z,12.88
2023-01-03T15:58:39.297Z,11.77
2023-01-03T16:01:41.871Z,11.60
2023-01-03T16:04:48.639Z,11.83
2023-01-03T16:07:51.133Z,11.32
2023-01-03T16:10:54.066Z,12.27
2023-01-03T16:13:58.746Z,12.15
2023-01-03T16:17:01.271Z,12.05
2023-01-03T16:20:03.993Z,13.47
2023-01-03T16:23:06.286Z,13.23
2023-01-03T16:26:08.926Z,13.63
2023-01-03T16:29:11.642Z,13.02
2023-01-03T16:32:32.495Z,13.80
2023-01-03T16:35:35.135Z,14.20
2023-01-03T16:38:37.474Z,14.68
2023-01-03T16:41:39.873Z,13.02
2023-01-03T16:44:43.439Z,13.10
2023-01-03T16:47:46.184Z,13.75
2023-01-03T16:50:50.449Z,13.50
2023-01-03T16:53:53.788Z,12.90
2023-01-03T16:56:56.384Z,13.43
2023-01-03T16:59:59.016Z,13.13
2023-01-03T17:03:02.401Z,13.02
2023-01-03T17:06:05.169Z,12.90
2023-01-03T17:09:13.755Z,14.43
2023-01-03T17:12:17.470Z,14.38
2023-01-03T17:15:19.974Z,15.00
2023-01-03T17:18:23.434Z,14.23
2023-01-03T17:21:35.635Z,15.57
2023-01-03T17:24:37.950Z,15.25
2023-01-03T17:27:40.271Z,15.68
2023-01-03T17:30:43.302Z,16.75
2023-01-03T17:33:45.949Z,16.67
2023-01-03T17:36:48.598Z,16.90
2023-01-03T17:39:57.870Z,16.95
2023-01-03T17:43:00.541Z,17.25
2023-01-03T17:46:24.015Z,17.15
2023-01-03T17:49:26.505Z,18.08
2023-01-03T17:52:31.371Z,18.77
2023-01-03T17:55:33.960Z,19.23
2023-01-03T17:58:37.306Z,19.70
2023-01-03T18:01:39.955Z,19.23
2023-01-03T18:05:13.228Z,18.70
2023-01-03T18:08:04.615Z,18.73
2023-01-03T18:11:07.754Z,19.08
2023-01-03T18:14:14.099Z,21.25
2023-01-03T18:17:25.704Z,22.02
2023-01-03T18:20:28.521Z,22.48
2023-01-03T18:23:31.982Z,21.30
2023-01-03T18:26:39.502Z,22.35
2023-01-03T18:29:43.225Z,25.60
2023-01-03T18:32:45.536Z,23.25
2023-01-03T18:35:48.901Z,23.05
2023-01-03T18:38:52.024Z,21.57
2023-01-03T18:42:15.086Z,23.15
2023-01-03T18:45:17.447Z,23.48
2023-01-03T18:48:21.349Z,26.30
2023-01-03T18:51:24.682Z,25.63
2023-01-03T18:54:27.368Z,23.80
2023-01-03T18:57:29.900Z,23.88
2023-01-03T19:00:32.227Z,23.63
2023-01-03T19:03:36.055Z,23.13
2023-01-03T19:06:41.729Z,22.63
2023-01-03T19:09:44.352Z,23.20
2023-01-03T19:12:47.267Z,23.13
2023-01-03T19:15:49.531Z,21.88
2023-01-03T19:18:51.907Z,23.38
2023-01-03T19:21:54.468Z,21.70
2023-01-03T19:24:58.731Z,21.93
2023-01-03T19:28:02.451Z,20.58
2023-01-03T19:31:05.092Z,20.30
2023-01-03T19:34:14.234Z,20.02
2023-01-03T19:37:16.972Z,20.58
2023-01-03T19:40:21.901Z,20.77
2023-01-03T19:43:24.962Z,21.65
2023-01-03T19:46:27.283Z,22.60
2023-01-03T19:49:29.959Z,21.92
2023-01-03T19:52:32.324Z,22.23
2023-01-03T19:55:37.455Z,21.77
2023-01-03T19:58:40.690Z,22.27
2023-01-03T20:02:14.318Z,23.48
2023-01-03T20:05:19.422Z,21.48
2023-01-03T20:08:21.941Z,22.15
2023-01-03T20:11:24.433Z,21.93
2023-01-03T20:14:26.775Z,21.42
2023-01-03T20:17:29.017Z,23.00
2023-01-03T20:20:33.072Z,23.33
2023-01-03T20:23:56.150Z,23.42
2023-01-03T20:26:58.817Z,23.17
2023-01-03T20:30:01.038Z,23.80
2023-01-03T20:33:03.417Z,21.33
2023-01-03T20:36:11.554Z,21.65
2023-01-03T20:39:23.120Z,21.02
2023-01-03T20:42:25.472Z,20.73
2023-01-03T20:45:27.757Z,19.95
2023-01-03T20:48:30.590Z,19.77
2023-01-03T20:51:32.885Z,18.40
2023-01-03T20:54:35.134Z,18.77
2023-01-03T20:57:37.443Z,19.43
2023-01-03T21:00:40.242Z,19.58
2023-01-03T21:03:42.619Z,18.23
2023-01-03T21:06:45.771Z,17.63
2023-01-03T21:09:48.212Z,18.40
2023-01-03T21:12:50.556Z,17.67
2023-01-03T21:15:53.008Z,16.73
2023-01-03T21:18:55.948Z,16.27
2023-01-03T21:22:00.384Z,15.25
2023-01-03T21:25:02.782Z,14.63
2023-01-03T21:28:05.166Z,14.20
2023-01-03T21:31:07.489Z,14.70
2023-01-03T21:34:16.002Z,14.55
2023-01-03T21:37:18.604Z,14.35
2023-01-03T21:40:25.462Z,13.02
2023-01-03T21:43:27.784Z,13.43
2023-01-03T21:46:30.708Z,12.85
2023-01-03T21:49:33.010Z,12.00
2023-01-03T21:52:35.375Z,12.20
2023-01-03T21:55:39.673Z,12.23
2023-01-03T21:58:41.880Z,11.87
2023-01-03T22:02:06.439Z,11.98
2023-01-03T22:05:08.943Z,11.55
2023-01-03T22:08:11.262Z,12.00
2023-01-03T22:11:13.522Z,11.38
2023-01-03T22:14:15.699Z,11.97
2023-01-03T22:17:17.944Z,11.30
2023-01-03T22:20:22.255Z,10.45
2023-01-03T22:23:24.824Z,10.15
2023-01-03T22:26:32.440Z,9.95
2023-01-03T22:29:36.582Z,9.70
2023-01-03T22:32:39.296Z,9.60
2023-01-03T22:35:41.451Z,9.20
2023-01-03T22:38:44.023Z,9.98
2023-01-03T22:41:46.287Z,9.32
2023-01-03T22:44:48.838Z,9.40
2023-01-03T22:47:51.101Z,11.23
2023-01-03T22:50:53.382Z,9.45
2023-01-03T22:53:55.688Z,9.82
2023-01-03T22:56:58.098Z,9.20
2023-01-03T23:00:00.350Z,9.10
2023-01-03T23:03:02.672Z,8.98
2023-01-03T23:06:06.301Z,9.00
2023-01-03T23:09:08.714Z,8.07
2023-01-03T23:12:29.513Z,8.45
2023-01-03T23:15:32.027Z,7.73
2023-01-03T23:18:34.260Z,7.85
2023-01-03T23:21:36.726Z,8.68
2023-01-03T23:24:38.878Z,8.48
2023-01-03T23:27:41.433Z,8.07
2023-01-03T23:30:43.652Z,8.10
2023-01-03T23:33:45.919Z,8.18
2023-01-03T23:36:48.662Z,8.38
2023-01-03T23:39:50.894Z,7.43
2023-01-03T23:42:53.370Z,7.97
2023-01-03T23:45:57.573Z,7.23
2023-01-03T23:49:00.216Z,6.95
2023-01-03T23:52:02.553Z,6.88
2023-01-03T23:55:10.383Z,7.45
2023-01-03T23:58:14.819Z,7.68
